Centralia, Iowa
Current Conditions -  °F | °C
As of 10:53 PM on Wednesday 22 Oct 2014 (Local Time) from KDBQ Reporting Station
Clear Clear  
Wind Chill: 39°   Ceiling: Unl
Heat Index: 45°   Visibility: 10mi
Dew Point: 37°   Wind: 13mph
Humidity: 74%   Direction: 170°S
Pressure: 30.2"   Gusts: NA
Location:  42.4241°N, 90.8165°W
Report Text: KDBQ 230353Z AUTO 17011KT 10SM CLR 07/03 A3020 RMK AO2 SLP231 T00720028
Loading
Personal Weather Stations






























Interactive Weather Map
Tropical Storm Tracking
New forecast layout! Learn more

10-Day Weather Forecast

Advertisements
Track Severe Weather on mobile